sensor_id;sensor_type;location;lat;lon;timestamp;P1;durP1;ratioP1;P2;durP2;ratioP2
13185;SDS011;6658;53.080;7.428;2023-04-03T00:01:29;1.07;;;0.87;;
13185;SDS011;6658;53.080;7.428;2023-04-03T00:03:55;2.53;;;0.97;;
13185;SDS011;6658;53.080;7.428;2023-04-03T00:06:21;1.83;;;0.93;;
13185;SDS011;6658;53.080;7.428;2023-04-03T00:08:47;1.23;;;0.97;;
13185;SDS011;6658;53.080;7.428;2023-04-03T00:11:13;1.83;;;0.80;;
13185;SDS011;6658;53.080;7.428;2023-04-03T00:13:40;3.37;;;0.90;;
13185;SDS011;6658;53.080;7.428;2023-04-03T00:16:07;1.93;;;0.97;;
13185;SDS011;6658;53.080;7.428;2023-04-03T00:18:34;1.20;;;0.80;;
13185;SDS011;6658;53.080;7.428;2023-04-03T00:21:00;1.20;;;0.87;;
13185;SDS011;6658;53.080;7.428;2023-04-03T00:23:26;2.60;;;0.80;;
13185;SDS011;6658;53.080;7.428;2023-04-03T00:25:53;1.77;;;0.80;;
13185;SDS011;6658;53.080;7.428;2023-04-03T00:28:19;1.10;;;0.93;;
13185;SDS011;6658;53.080;7.428;2023-04-03T00:30:45;3.20;;;0.90;;
13185;SDS011;6658;53.080;7.428;2023-04-03T00:33:11;2.27;;;1.00;;
13185;SDS011;6658;53.080;7.428;2023-04-03T00:35:38;2.07;;;0.80;;
13185;SDS011;6658;53.080;7.428;2023-04-03T00:38:04;2.23;;;1.23;;
13185;SDS011;6658;53.080;7.428;2023-04-03T00:40:33;1.27;;;1.00;;
13185;SDS011;6658;53.080;7.428;2023-04-03T00:43:00;2.70;;;1.23;;
13185;SDS011;6658;53.080;7.428;2023-04-03T00:45:34;1.20;;;1.00;;
13185;SDS011;6658;53.080;7.428;2023-04-03T00:48:03;1.60;;;1.00;;
13185;SDS011;6658;53.080;7.428;2023-04-03T00:50:32;3.93;;;1.13;;
13185;SDS011;6658;53.080;7.428;2023-04-03T00:53:01;1.83;;;1.07;;
13185;SDS011;6658;53.080;7.428;2023-04-03T00:55:29;2.00;;;0.83;;
13185;SDS011;6658;53.080;7.428;2023-04-03T00:57:56;1.30;;;0.90;;
13185;SDS011;6658;53.080;7.428;2023-04-03T01:00:23;1.57;;;0.80;;
13185;SDS011;6658;53.080;7.428;2023-04-03T01:02:50;3.13;;;1.10;;
13185;SDS011;6658;53.080;7.428;2023-04-03T01:05:16;4.33;;;1.50;;
13185;SDS011;6658;53.080;7.428;2023-04-03T01:07:44;3.43;;;1.20;;
13185;SDS011;6658;53.080;7.428;2023-04-03T01:10:11;2.67;;;1.00;;
13185;SDS011;6658;53.080;7.428;2023-04-03T01:12:40;1.70;;;1.00;;
13185;SDS011;6658;53.080;7.428;2023-04-03T01:15:13;1.53;;;0.90;;
13185;SDS011;6658;53.080;7.428;2023-04-03T01:17:59;2.47;;;1.17;;
13185;SDS011;6658;53.080;7.428;2023-04-03T01:25:42;2.53;;;1.10;;
13185;SDS011;6658;53.080;7.428;2023-04-03T01:28:15;2.57;;;1.53;;
13185;SDS011;6658;53.080;7.428;2023-04-03T01:30:47;3.67;;;1.17;;
13185;SDS011;6658;53.080;7.428;2023-04-03T01:33:14;1.27;;;1.10;;
13185;SDS011;6658;53.080;7.428;2023-04-03T01:35:39;3.17;;;1.20;;
13185;SDS011;6658;53.080;7.428;2023-04-03T01:38:05;1.73;;;1.10;;
13185;SDS011;6658;53.080;7.428;2023-04-03T01:40:31;3.50;;;1.40;;
13185;SDS011;6658;53.080;7.428;2023-04-03T01:42:57;3.33;;;1.10;;
13185;SDS011;6658;53.080;7.428;2023-04-03T01:45:23;2.37;;;1.30;;
13185;SDS011;6658;53.080;7.428;2023-04-03T01:47:49;3.23;;;1.43;;
13185;SDS011;6658;53.080;7.428;2023-04-03T01:50:15;3.77;;;1.30;;
13185;SDS011;6658;53.080;7.428;2023-04-03T01:52:40;2.70;;;1.17;;
13185;SDS011;6658;53.080;7.428;2023-04-03T01:55:06;3.60;;;1.60;;
13185;SDS011;6658;53.080;7.428;2023-04-03T01:57:32;1.70;;;1.17;;
13185;SDS011;6658;53.080;7.428;2023-04-03T01:59:58;3.13;;;1.07;;
13185;SDS011;6658;53.080;7.428;2023-04-03T02:02:23;3.13;;;1.50;;
13185;SDS011;6658;53.080;7.428;2023-04-03T02:04:49;2.37;;;1.13;;
13185;SDS011;6658;53.080;7.428;2023-04-03T02:07:15;2.70;;;1.30;;
13185;SDS011;6658;53.080;7.428;2023-04-03T02:09:40;1.57;;;0.83;;
13185;SDS011;6658;53.080;7.428;2023-04-03T02:12:06;2.23;;;1.17;;
13185;SDS011;6658;53.080;7.428;2023-04-03T02:14:32;4.17;;;1.40;;
13185;SDS011;6658;53.080;7.428;2023-04-03T02:16:57;3.47;;;1.33;;
13185;SDS011;6658;53.080;7.428;2023-04-03T02:19:25;2.90;;;1.53;;
13185;SDS011;6658;53.080;7.428;2023-04-03T02:21:51;2.13;;;1.27;;
13185;SDS011;6658;53.080;7.428;2023-04-03T02:24:17;2.53;;;1.30;;
13185;SDS011;6658;53.080;7.428;2023-04-03T02:26:42;3.13;;;1.30;;
13185;SDS011;6658;53.080;7.428;2023-04-03T02:29:08;2.43;;;1.30;;
13185;SDS011;6658;53.080;7.428;2023-04-03T02:31:33;5.20;;;1.97;;
13185;SDS011;6658;53.080;7.428;2023-04-03T02:33:59;1.67;;;1.30;;
13185;SDS011;6658;53.080;7.428;2023-04-03T02:36:25;2.83;;;1.77;;
13185;SDS011;6658;53.080;7.428;2023-04-03T02:38:50;7.87;;;1.57;;
13185;SDS011;6658;53.080;7.428;2023-04-03T02:41:16;2.97;;;1.30;;
13185;SDS011;6658;53.080;7.428;2023-04-03T02:43:42;4.93;;;1.63;;
13185;SDS011;6658;53.080;7.428;2023-04-03T02:46:08;5.07;;;1.60;;
13185;SDS011;6658;53.080;7.428;2023-04-03T02:48:33;2.47;;;1.77;;
13185;SDS011;6658;53.080;7.428;2023-04-03T02:51:00;3.30;;;1.53;;
13185;SDS011;6658;53.080;7.428;2023-04-03T02:53:26;2.63;;;1.20;;
13185;SDS011;6658;53.080;7.428;2023-04-03T02:55:51;1.90;;;1.67;;
13185;SDS011;6658;53.080;7.428;2023-04-03T02:58:17;3.70;;;1.70;;
13185;SDS011;6658;53.080;7.428;2023-04-03T03:00:43;5.00;;;1.80;;
13185;SDS011;6658;53.080;7.428;2023-04-03T03:03:08;3.90;;;1.80;;
13185;SDS011;6658;53.080;7.428;2023-04-03T03:05:34;3.90;;;1.90;;
13185;SDS011;6658;53.080;7.428;2023-04-03T03:08:00;4.57;;;1.60;;
13185;SDS011;6658;53.080;7.428;2023-04-03T03:10:26;2.67;;;1.50;;
13185;SDS011;6658;53.080;7.428;2023-04-03T03:12:52;3.97;;;1.93;;
13185;SDS011;6658;53.080;7.428;2023-04-03T03:15:18;3.57;;;1.57;;
13185;SDS011;6658;53.080;7.428;2023-04-03T03:17:44;5.07;;;2.10;;
13185;SDS011;6658;53.080;7.428;2023-04-03T03:20:10;1.70;;;1.60;;
13185;SDS011;6658;53.080;7.428;2023-04-03T03:22:37;7.23;;;1.90;;
13185;SDS011;6658;53.080;7.428;2023-04-03T03:25:03;5.20;;;2.10;;
13185;SDS011;6658;53.080;7.428;2023-04-03T03:27:29;5.27;;;2.90;;
13185;SDS011;6658;53.080;7.428;2023-04-03T03:29:54;3.60;;;2.60;;
13185;SDS011;6658;53.080;7.428;2023-04-03T03:32:20;4.67;;;2.23;;
13185;SDS011;6658;53.080;7.428;2023-04-03T03:34:46;1.93;;;1.70;;
13185;SDS011;6658;53.080;7.428;2023-04-03T03:37:11;4.20;;;2.23;;
13185;SDS011;6658;53.080;7.428;2023-04-03T03:39:37;2.37;;;2.03;;
13185;SDS011;6658;53.080;7.428;2023-04-03T03:42:03;4.80;;;2.00;;
13185;SDS011;6658;53.080;7.428;2023-04-03T03:44:28;6.53;;;2.00;;
13185;SDS011;6658;53.080;7.428;2023-04-03T03:46:54;4.13;;;1.93;;
13185;SDS011;6658;53.080;7.428;2023-04-03T03:49:21;5.00;;;1.90;;
13185;SDS011;6658;53.080;7.428;2023-04-03T03:51:47;8.17;;;2.40;;
13185;SDS011;6658;53.080;7.428;2023-04-03T03:54:13;2.07;;;1.73;;
13185;SDS011;6658;53.080;7.428;2023-04-03T03:56:39;2.53;;;1.70;;
13185;SDS011;6658;53.080;7.428;2023-04-03T03:59:05;2.93;;;1.80;;
13185;SDS011;6658;53.080;7.428;2023-04-03T04:01:30;4.83;;;2.60;;
13185;SDS011;6658;53.080;7.428;2023-04-03T04:03:56;5.07;;;2.00;;
13185;SDS011;6658;53.080;7.428;2023-04-03T04:06:22;6.33;;;2.50;;
13185;SDS011;6658;53.080;7.428;2023-04-03T04:08:48;4.33;;;2.00;;
13185;SDS011;6658;53.080;7.428;2023-04-03T04:11:14;2.43;;;1.87;;
13185;SDS011;6658;53.080;7.428;2023-04-03T04:13:40;4.43;;;2.30;;
13185;SDS011;6658;53.080;7.428;2023-04-03T04:16:06;3.03;;;1.70;;
13185;SDS011;6658;53.080;7.428;2023-04-03T04:18:32;2.30;;;2.00;;
13185;SDS011;6658;53.080;7.428;2023-04-03T04:20:58;4.07;;;2.40;;
13185;SDS011;6658;53.080;7.428;2023-04-03T04:23:23;4.47;;;2.03;;
13185;SDS011;6658;53.080;7.428;2023-04-03T04:25:49;2.97;;;1.63;;
13185;SDS011;6658;53.080;7.428;2023-04-03T04:28:15;4.37;;;2.07;;
13185;SDS011;6658;53.080;7.428;2023-04-03T04:30:42;9.13;;;1.90;;
13185;SDS011;6658;53.080;7.428;2023-04-03T04:33:07;4.67;;;2.30;;
13185;SDS011;6658;53.080;7.428;2023-04-03T04:35:33;2.83;;;1.90;;
13185;SDS011;6658;53.080;7.428;2023-04-03T04:37:59;4.37;;;2.10;;
13185;SDS011;6658;53.080;7.428;2023-04-03T04:40:25;4.93;;;1.90;;
13185;SDS011;6658;53.080;7.428;2023-04-03T04:42:51;10.20;;;3.30;;
13185;SDS011;6658;53.080;7.428;2023-04-03T04:45:17;2.30;;;1.80;;
13185;SDS011;6658;53.080;7.428;2023-04-03T04:47:43;3.30;;;2.10;;
13185;SDS011;6658;53.080;7.428;2023-04-03T04:50:09;6.17;;;2.00;;
13185;SDS011;6658;53.080;7.428;2023-04-03T04:52:36;3.87;;;1.93;;
13185;SDS011;6658;53.080;7.428;2023-04-03T04:55:02;3.13;;;1.87;;
13185;SDS011;6658;53.080;7.428;2023-04-03T04:57:29;4.00;;;2.03;;
13185;SDS011;6658;53.080;7.428;2023-04-03T04:59:54;5.60;;;2.00;;
13185;SDS011;6658;53.080;7.428;2023-04-03T05:02:20;3.07;;;1.87;;
13185;SDS011;6658;53.080;7.428;2023-04-03T05:04:46;4.23;;;2.10;;
13185;SDS011;6658;53.080;7.428;2023-04-03T05:07:11;6.23;;;2.20;;
13185;SDS011;6658;53.080;7.428;2023-04-03T05:09:37;9.80;;;2.40;;
13185;SDS011;6658;53.080;7.428;2023-04-03T05:12:03;4.37;;;2.30;;
13185;SDS011;6658;53.080;7.428;2023-04-03T05:14:29;5.47;;;2.60;;
13185;SDS011;6658;53.080;7.428;2023-04-03T05:16:55;3.33;;;2.20;;
13185;SDS011;6658;53.080;7.428;2023-04-03T05:19:20;3.63;;;2.37;;
13185;SDS011;6658;53.080;7.428;2023-04-03T05:21:46;6.40;;;2.30;;
13185;SDS011;6658;53.080;7.428;2023-04-03T05:24:13;8.23;;;2.30;;
13185;SDS011;6658;53.080;7.428;2023-04-03T05:26:39;4.97;;;2.40;;
13185;SDS011;6658;53.080;7.428;2023-04-03T05:29:05;3.63;;;2.20;;
13185;SDS011;6658;53.080;7.428;2023-04-03T05:31:31;4.33;;;2.63;;
13185;SDS011;6658;53.080;7.428;2023-04-03T05:33:57;5.00;;;2.60;;
13185;SDS011;6658;53.080;7.428;2023-04-03T05:36:23;4.73;;;2.57;;
13185;SDS011;6658;53.080;7.428;2023-04-03T05:38:50;4.40;;;2.90;;
13185;SDS011;6658;53.080;7.428;2023-04-03T05:41:16;4.90;;;2.50;;
13185;SDS011;6658;53.080;7.428;2023-04-03T05:43:42;6.57;;;2.87;;
13185;SDS011;6658;53.080;7.428;2023-04-03T05:46:11;9.33;;;3.07;;
13185;SDS011;6658;53.080;7.428;2023-04-03T05:48:38;8.03;;;2.47;;
13185;SDS011;6658;53.080;7.428;2023-04-03T05:51:05;3.60;;;2.23;;
13185;SDS011;6658;53.080;7.428;2023-04-03T05:53:32;3.30;;;2.10;;
13185;SDS011;6658;53.080;7.428;2023-04-03T05:56:02;5.30;;;2.27;;
13185;SDS011;6658;53.080;7.428;2023-04-03T05:58:28;5.40;;;2.10;;
13185;SDS011;6658;53.080;7.428;2023-04-03T06:00:54;3.77;;;2.23;;
13185;SDS011;6658;53.080;7.428;2023-04-03T06:03:20;4.73;;;2.30;;
13185;SDS011;6658;53.080;7.428;2023-04-03T06:05:46;3.03;;;1.70;;
13185;SDS011;6658;53.080;7.428;2023-04-03T06:08:11;3.67;;;1.63;;
13185;SDS011;6658;53.080;7.428;2023-04-03T06:10:37;3.07;;;1.83;;
13185;SDS011;6658;53.080;7.428;2023-04-03T06:13:04;7.10;;;1.83;;
13185;SDS011;6658;53.080;7.428;2023-04-03T06:15:30;3.00;;;1.60;;
13185;SDS011;6658;53.080;7.428;2023-04-03T06:17:55;2.80;;;1.93;;
13185;SDS011;6658;53.080;7.428;2023-04-03T06:20:22;4.90;;;1.93;;
13185;SDS011;6658;53.080;7.428;2023-04-03T06:22:47;3.63;;;2.17;;
13185;SDS011;6658;53.080;7.428;2023-04-03T06:25:13;4.47;;;2.10;;
13185;SDS011;6658;53.080;7.428;2023-04-03T06:27:39;3.03;;;2.03;;
13185;SDS011;6658;53.080;7.428;2023-04-03T06:30:06;3.50;;;2.10;;
13185;SDS011;6658;53.080;7.428;2023-04-03T06:32:32;3.10;;;1.90;;
13185;SDS011;6658;53.080;7.428;2023-04-03T06:34:58;5.53;;;2.27;;
13185;SDS011;6658;53.080;7.428;2023-04-03T06:37:23;2.93;;;2.33;;
13185;SDS011;6658;53.080;7.428;2023-04-03T06:39:54;4.53;;;2.13;;
13185;SDS011;6658;53.080;7.428;2023-04-03T06:42:20;3.37;;;1.60;;
13185;SDS011;6658;53.080;7.428;2023-04-03T06:44:46;5.70;;;2.13;;
13185;SDS011;6658;53.080;7.428;2023-04-03T06:47:13;3.27;;;1.50;;
13185;SDS011;6658;53.080;7.428;2023-04-03T06:49:39;4.70;;;1.80;;
13185;SDS011;6658;53.080;7.428;2023-04-03T06:52:06;3.47;;;1.87;;
13185;SDS011;6658;53.080;7.428;2023-04-03T06:54:32;4.47;;;2.03;;
13185;SDS011;6658;53.080;7.428;2023-04-03T06:56:58;4.43;;;2.40;;
13185;SDS011;6658;53.080;7.428;2023-04-03T06:59:24;2.57;;;1.80;;
13185;SDS011;6658;53.080;7.428;2023-04-03T07:01:50;3.20;;;1.97;;
13185;SDS011;6658;53.080;7.428;2023-04-03T07:04:16;2.70;;;1.57;;
13185;SDS011;6658;53.080;7.428;2023-04-03T07:06:44;2.53;;;1.40;;
13185;SDS011;6658;53.080;7.428;2023-04-03T07:09:10;4.83;;;1.77;;
13185;SDS011;6658;53.080;7.428;2023-04-03T07:11:36;5.07;;;1.60;;
13185;SDS011;6658;53.080;7.428;2023-04-03T07:14:02;5.13;;;2.63;;
13185;SDS011;6658;53.080;7.428;2023-04-03T07:16:28;3.67;;;1.83;;
13185;SDS011;6658;53.080;7.428;2023-04-03T07:18:55;3.50;;;1.63;;
13185;SDS011;6658;53.080;7.428;2023-04-03T07:21:22;2.97;;;1.90;;
13185;SDS011;6658;53.080;7.428;2023-04-03T07:23:48;3.37;;;1.93;;
13185;SDS011;6658;53.080;7.428;2023-04-03T07:26:13;4.83;;;2.30;;
13185;SDS011;6658;53.080;7.428;2023-04-03T07:28:39;3.60;;;1.40;;
13185;SDS011;6658;53.080;7.428;2023-04-03T07:31:06;2.30;;;1.67;;
13185;SDS011;6658;53.080;7.428;2023-04-03T07:33:36;1.93;;;1.60;;
13185;SDS011;6658;53.080;7.428;2023-04-03T07:36:02;2.97;;;1.60;;
13185;SDS011;6658;53.080;7.428;2023-04-03T07:38:29;3.30;;;2.10;;
13185;SDS011;6658;53.080;7.428;2023-04-03T07:40:54;3.00;;;1.53;;
13185;SDS011;6658;53.080;7.428;2023-04-03T07:43:20;3.27;;;1.33;;
13185;SDS011;6658;53.080;7.428;2023-04-03T07:45:47;2.57;;;1.30;;
13185;SDS011;6658;53.080;7.428;2023-04-03T07:48:16;1.60;;;1.20;;
13185;SDS011;6658;53.080;7.428;2023-04-03T07:50:43;2.07;;;1.33;;
13185;SDS011;6658;53.080;7.428;2023-04-03T07:53:09;2.37;;;1.20;;
13185;SDS011;6658;53.080;7.428;2023-04-03T07:55:35;3.10;;;1.43;;
13185;SDS011;6658;53.080;7.428;2023-04-03T07:58:07;2.47;;;1.50;;
13185;SDS011;6658;53.080;7.428;2023-04-03T08:00:34;3.30;;;1.40;;
13185;SDS011;6658;53.080;7.428;2023-04-03T08:03:00;2.63;;;1.53;;
13185;SDS011;6658;53.080;7.428;2023-04-03T08:05:26;2.73;;;1.30;;
13185;SDS011;6658;53.080;7.428;2023-04-03T08:07:52;1.93;;;1.00;;
13185;SDS011;6658;53.080;7.428;2023-04-03T08:10:17;1.20;;;0.70;;
13185;SDS011;6658;53.080;7.428;2023-04-03T08:12:45;2.13;;;1.07;;
13185;SDS011;6658;53.080;7.428;2023-04-03T08:15:11;2.43;;;1.30;;
13185;SDS011;6658;53.080;7.428;2023-04-03T08:17:37;1.70;;;1.10;;
13185;SDS011;6658;53.080;7.428;2023-04-03T08:20:06;2.90;;;1.50;;
13185;SDS011;6658;53.080;7.428;2023-04-03T08:22:33;2.07;;;1.40;;
13185;SDS011;6658;53.080;7.428;2023-04-03T08:24:59;2.43;;;1.13;;
13185;SDS011;6658;53.080;7.428;2023-04-03T08:27:26;1.70;;;1.03;;
13185;SDS011;6658;53.080;7.428;2023-04-03T08:29:52;2.30;;;1.27;;
13185;SDS011;6658;53.080;7.428;2023-04-03T08:32:18;2.40;;;1.20;;
13185;SDS011;6658;53.080;7.428;2023-04-03T08:34:44;1.50;;;1.10;;
13185;SDS011;6658;53.080;7.428;2023-04-03T08:37:09;1.40;;;1.10;;
13185;SDS011;6658;53.080;7.428;2023-04-03T08:39:35;2.20;;;1.40;;
13185;SDS011;6658;53.080;7.428;2023-04-03T08:42:03;2.90;;;1.20;;
13185;SDS011;6658;53.080;7.428;2023-04-03T08:47:28;2.57;;;1.50;;
13185;SDS011;6658;53.080;7.428;2023-04-03T08:50:23;1.50;;;1.23;;
13185;SDS011;6658;53.080;7.428;2023-04-03T08:53:12;1.37;;;1.10;;
13185;SDS011;6658;53.080;7.428;2023-04-03T08:55:47;3.57;;;1.50;;
13185;SDS011;6658;53.080;7.428;2023-04-03T08:58:22;1.63;;;1.10;;
13185;SDS011;6658;53.080;7.428;2023-04-03T09:01:01;1.57;;;1.10;;
13185;SDS011;6658;53.080;7.428;2023-04-03T09:03:32;2.07;;;1.23;;
13185;SDS011;6658;53.080;7.428;2023-04-03T09:06:10;1.67;;;1.40;;
13185;SDS011;6658;53.080;7.428;2023-04-03T09:11:44;1.70;;;1.33;;
13185;SDS011;6658;53.080;7.428;2023-04-03T09:17:04;1.30;;;1.20;;
13185;SDS011;6658;53.080;7.428;2023-04-03T09:19:41;2.00;;;1.40;;
13185;SDS011;6658;53.080;7.428;2023-04-03T09:22:24;1.07;;;1.07;;
13185;SDS011;6658;53.080;7.428;2023-04-03T09:24:58;2.37;;;1.00;;
13185;SDS011;6658;53.080;7.428;2023-04-03T09:27:49;0.80;;;0.80;;
13185;SDS011;6658;53.080;7.428;2023-04-03T09:30:16;1.40;;;0.97;;
13185;SDS011;6658;53.080;7.428;2023-04-03T09:32:45;2.70;;;1.03;;
13185;SDS011;6658;53.080;7.428;2023-04-03T09:35:25;1.17;;;1.07;;
13185;SDS011;6658;53.080;7.428;2023-04-03T09:37:54;1.87;;;1.20;;
13185;SDS011;6658;53.080;7.428;2023-04-03T09:40:40;1.60;;;1.20;;
13185;SDS011;6658;53.080;7.428;2023-04-03T09:45:49;2.50;;;1.00;;
13185;SDS011;6658;53.080;7.428;2023-04-03T09:48:18;1.20;;;1.10;;
13185;SDS011;6658;53.080;7.428;2023-04-03T09:53:31;0.87;;;0.87;;
13185;SDS011;6658;53.080;7.428;2023-04-03T09:56:03;1.47;;;1.20;;
13185;SDS011;6658;53.080;7.428;2023-04-03T10:04:11;1.67;;;0.97;;
13185;SDS011;6658;53.080;7.428;2023-04-03T10:06:48;1.57;;;1.07;;
13185;SDS011;6658;53.080;7.428;2023-04-03T10:28:03;1.40;;;1.07;;
13185;SDS011;6658;53.080;7.428;2023-04-03T10:33:51;1.57;;;1.10;;
13185;SDS011;6658;53.080;7.428;2023-04-03T10:41:39;2.90;;;1.30;;
13185;SDS011;6658;53.080;7.428;2023-04-03T10:47:16;3.80;;;1.40;;
13185;SDS011;6658;53.080;7.428;2023-04-03T10:50:19;1.73;;;1.10;;
13185;SDS011;6658;53.080;7.428;2023-04-03T10:55:58;1.47;;;1.10;;
13185;SDS011;6658;53.080;7.428;2023-04-03T10:58:34;2.20;;;1.00;;
13185;SDS011;6658;53.080;7.428;2023-04-03T11:01:14;2.00;;;1.10;;
13185;SDS011;6658;53.080;7.428;2023-04-03T11:03:51;2.47;;;1.30;;
13185;SDS011;6658;53.080;7.428;2023-04-03T11:06:20;2.20;;;1.10;;
13185;SDS011;6658;53.080;7.428;2023-04-03T11:08:50;1.67;;;1.07;;
13185;SDS011;6658;53.080;7.428;2023-04-03T11:11:32;1.63;;;0.97;;
13185;SDS011;6658;53.080;7.428;2023-04-03T11:16:49;1.03;;;1.00;;
13185;SDS011;6658;53.080;7.428;2023-04-03T11:22:16;1.37;;;1.10;;
13185;SDS011;6658;53.080;7.428;2023-04-03T11:24:59;1.53;;;1.10;;
13185;SDS011;6658;53.080;7.428;2023-04-03T11:27:44;1.83;;;1.00;;
13185;SDS011;6658;53.080;7.428;2023-04-03T11:30:15;1.93;;;1.17;;
13185;SDS011;6658;53.080;7.428;2023-04-03T11:32:50;1.47;;;0.83;;
13185;SDS011;6658;53.080;7.428;2023-04-03T11:35:35;1.33;;;1.13;;
13185;SDS011;6658;53.080;7.428;2023-04-03T11:38:02;1.50;;;1.20;;
13185;SDS011;6658;53.080;7.428;2023-04-03T11:40:32;2.23;;;1.00;;
13185;SDS011;6658;53.080;7.428;2023-04-03T11:50:59;3.03;;;1.30;;
13185;SDS011;6658;53.080;7.428;2023-04-03T11:53:37;1.50;;;1.23;;
13185;SDS011;6658;53.080;7.428;2023-04-03T12:01:51;1.10;;;0.90;;
13185;SDS011;6658;53.080;7.428;2023-04-03T12:04:18;1.60;;;1.23;;
13185;SDS011;6658;53.080;7.428;2023-04-03T12:11:49;3.40;;;1.30;;
13185;SDS011;6658;53.080;7.428;2023-04-03T12:14:17;1.30;;;1.10;;
13185;SDS011;6658;53.080;7.428;2023-04-03T12:16:44;1.47;;;0.80;;
13185;SDS011;6658;53.080;7.428;2023-04-03T12:26:46;2.37;;;1.47;;
13185;SDS011;6658;53.080;7.428;2023-04-03T12:38:01;2.60;;;1.20;;
13185;SDS011;6658;53.080;7.428;2023-04-03T12:46:11;2.20;;;1.03;;
13185;SDS011;6658;53.080;7.428;2023-04-03T12:51:13;2.20;;;1.40;;
13185;SDS011;6658;53.080;7.428;2023-04-03T12:53:42;1.30;;;1.10;;
13185;SDS011;6658;53.080;7.428;2023-04-03T12:58:53;1.10;;;1.00;;
13185;SDS011;6658;53.080;7.428;2023-04-03T13:01:24;1.43;;;1.10;;
13185;SDS011;6658;53.080;7.428;2023-04-03T13:03:56;1.63;;;1.00;;
13185;SDS011;6658;53.080;7.428;2023-04-03T13:06:36;1.53;;;0.90;;
13185;SDS011;6658;53.080;7.428;2023-04-03T13:09:18;1.77;;;0.93;;
13185;SDS011;6658;53.080;7.428;2023-04-03T13:11:51;2.30;;;1.40;;
13185;SDS011;6658;53.080;7.428;2023-04-03T13:14:22;2.80;;;1.40;;
13185;SDS011;6658;53.080;7.428;2023-04-03T13:16:57;1.00;;;0.90;;
13185;SDS011;6658;53.080;7.428;2023-04-03T13:19:25;1.47;;;0.80;;
13185;SDS011;6658;53.080;7.428;2023-04-03T13:21:55;2.73;;;1.10;;
13185;SDS011;6658;53.080;7.428;2023-04-03T13:24:31;0.77;;;0.77;;
13185;SDS011;6658;53.080;7.428;2023-04-03T13:27:00;1.13;;;1.03;;
13185;SDS011;6658;53.080;7.428;2023-04-03T13:29:28;1.97;;;1.50;;
13185;SDS011;6658;53.080;7.428;2023-04-03T13:31:59;2.03;;;0.80;;
13185;SDS011;6658;53.080;7.428;2023-04-03T13:34:27;2.10;;;1.90;;
13185;SDS011;6658;53.080;7.428;2023-04-03T13:36:57;1.17;;;0.80;;
13185;SDS011;6658;53.080;7.428;2023-04-03T13:39:26;2.07;;;1.40;;
13185;SDS011;6658;53.080;7.428;2023-04-03T13:42:22;1.00;;;0.90;;
13185;SDS011;6658;53.080;7.428;2023-04-03T13:45:08;1.20;;;1.13;;
13185;SDS011;6658;53.080;7.428;2023-04-03T13:47:40;1.20;;;1.03;;
13185;SDS011;6658;53.080;7.428;2023-04-03T13:53:00;1.23;;;0.90;;
13185;SDS011;6658;53.080;7.428;2023-04-03T13:55:29;1.27;;;0.90;;
13185;SDS011;6658;53.080;7.428;2023-04-03T14:03:02;1.73;;;1.00;;
13185;SDS011;6658;53.080;7.428;2023-04-03T14:05:36;1.67;;;1.00;;
13185;SDS011;6658;53.080;7.428;2023-04-03T14:08:02;1.00;;;0.90;;
13185;SDS011;6658;53.080;7.428;2023-04-03T14:10:28;2.30;;;1.10;;
13185;SDS011;6658;53.080;7.428;2023-04-03T14:12:54;1.17;;;1.07;;
13185;SDS011;6658;53.080;7.428;2023-04-03T14:15:24;0.80;;;0.80;;
13185;SDS011;6658;53.080;7.428;2023-04-03T14:17:54;2.80;;;1.17;;
13185;SDS011;6658;53.080;7.428;2023-04-03T14:20:21;3.40;;;1.00;;
13185;SDS011;6658;53.080;7.428;2023-04-03T14:22:50;2.07;;;1.10;;
13185;SDS011;6658;53.080;7.428;2023-04-03T14:25:17;0.80;;;0.80;;
13185;SDS011;6658;53.080;7.428;2023-04-03T14:27:44;1.03;;;0.90;;
13185;SDS011;6658;53.080;7.428;2023-04-03T14:30:33;1.37;;;0.97;;
13185;SDS011;6658;53.080;7.428;2023-04-03T14:32:59;1.47;;;1.00;;
13185;SDS011;6658;53.080;7.428;2023-04-03T14:35:25;2.00;;;1.20;;
13185;SDS011;6658;53.080;7.428;2023-04-03T14:37:52;1.20;;;1.10;;
13185;SDS011;6658;53.080;7.428;2023-04-03T14:40:20;0.90;;;0.90;;
13185;SDS011;6658;53.080;7.428;2023-04-03T14:42:49;2.47;;;1.33;;
13185;SDS011;6658;53.080;7.428;2023-04-03T14:45:15;0.90;;;0.90;;
13185;SDS011;6658;53.080;7.428;2023-04-03T14:47:53;1.10;;;1.00;;
13185;SDS011;6658;53.080;7.428;2023-04-03T14:50:22;3.10;;;1.03;;
13185;SDS011;6658;53.080;7.428;2023-04-03T14:52:50;1.20;;;0.93;;
13185;SDS011;6658;53.080;7.428;2023-04-03T14:55:20;0.90;;;0.90;;
13185;SDS011;6658;53.080;7.428;2023-04-03T14:57:47;1.63;;;1.30;;
13185;SDS011;6658;53.080;7.428;2023-04-03T15:00:16;2.70;;;1.57;;
13185;SDS011;6658;53.080;7.428;2023-04-03T15:02:44;1.47;;;1.10;;
13185;SDS011;6658;53.080;7.428;2023-04-03T15:05:10;1.00;;;0.97;;
13185;SDS011;6658;53.080;7.428;2023-04-03T15:07:37;2.93;;;1.13;;
13185;SDS011;6658;53.080;7.428;2023-04-03T15:10:13;1.43;;;1.13;;
13185;SDS011;6658;53.080;7.428;2023-04-03T15:12:43;1.77;;;1.30;;
13185;SDS011;6658;53.080;7.428;2023-04-03T15:15:09;2.60;;;1.63;;
13185;SDS011;6658;53.080;7.428;2023-04-03T15:17:35;2.27;;;1.00;;
13185;SDS011;6658;53.080;7.428;2023-04-03T15:20:02;2.17;;;1.00;;
13185;SDS011;6658;53.080;7.428;2023-04-03T15:22:28;2.93;;;1.40;;
13185;SDS011;6658;53.080;7.428;2023-04-03T15:24:53;2.10;;;1.57;;
13185;SDS011;6658;53.080;7.428;2023-04-03T15:27:19;1.87;;;1.00;;
13185;SDS011;6658;53.080;7.428;2023-04-03T15:29:45;1.37;;;1.20;;
13185;SDS011;6658;53.080;7.428;2023-04-03T15:32:11;1.10;;;1.00;;
13185;SDS011;6658;53.080;7.428;2023-04-03T15:34:38;1.43;;;1.10;;
13185;SDS011;6658;53.080;7.428;2023-04-03T15:37:04;1.87;;;1.20;;
13185;SDS011;6658;53.080;7.428;2023-04-03T15:39:30;2.87;;;1.60;;
13185;SDS011;6658;53.080;7.428;2023-04-03T15:41:56;2.90;;;1.30;;
13185;SDS011;6658;53.080;7.428;2023-04-03T15:44:24;1.40;;;0.93;;
13185;SDS011;6658;53.080;7.428;2023-04-03T15:46:50;2.50;;;1.17;;
13185;SDS011;6658;53.080;7.428;2023-04-03T15:49:16;1.40;;;1.30;;
13185;SDS011;6658;53.080;7.428;2023-04-03T15:51:43;1.40;;;1.10;;
13185;SDS011;6658;53.080;7.428;2023-04-03T15:54:10;1.30;;;1.10;;
13185;SDS011;6658;53.080;7.428;2023-04-03T15:56:36;2.03;;;1.37;;
13185;SDS011;6658;53.080;7.428;2023-04-03T15:59:02;2.07;;;1.60;;
13185;SDS011;6658;53.080;7.428;2023-04-03T16:01:28;1.60;;;1.23;;
13185;SDS011;6658;53.080;7.428;2023-04-03T16:03:54;1.40;;;1.17;;
13185;SDS011;6658;53.080;7.428;2023-04-03T16:06:20;1.10;;;1.00;;
13185;SDS011;6658;53.080;7.428;2023-04-03T16:08:46;1.37;;;1.07;;
13185;SDS011;6658;53.080;7.428;2023-04-03T16:11:13;1.83;;;1.07;;
13185;SDS011;6658;53.080;7.428;2023-04-03T16:13:38;1.70;;;1.30;;
13185;SDS011;6658;53.080;7.428;2023-04-03T16:16:05;1.57;;;1.30;;
13185;SDS011;6658;53.080;7.428;2023-04-03T16:18:32;1.87;;;1.33;;
13185;SDS011;6658;53.080;7.428;2023-04-03T16:21:00;1.70;;;1.20;;
13185;SDS011;6658;53.080;7.428;2023-04-03T16:23:26;1.93;;;1.30;;
13185;SDS011;6658;53.080;7.428;2023-04-03T16:25:52;2.17;;;1.20;;
13185;SDS011;6658;53.080;7.428;2023-04-03T16:28:18;1.53;;;1.30;;
13185;SDS011;6658;53.080;7.428;2023-04-03T16:30:44;1.67;;;1.10;;
13185;SDS011;6658;53.080;7.428;2023-04-03T16:33:12;1.40;;;1.10;;
13185;SDS011;6658;53.080;7.428;2023-04-03T16:35:38;1.50;;;1.20;;
13185;SDS011;6658;53.080;7.428;2023-04-03T16:38:07;1.57;;;1.47;;
13185;SDS011;6658;53.080;7.428;2023-04-03T16:40:32;1.43;;;1.20;;
13185;SDS011;6658;53.080;7.428;2023-04-03T16:43:00;2.30;;;1.20;;
13185;SDS011;6658;53.080;7.428;2023-04-03T16:45:26;2.10;;;1.20;;
13185;SDS011;6658;53.080;7.428;2023-04-03T16:47:52;2.33;;;1.40;;
13185;SDS011;6658;53.080;7.428;2023-04-03T16:50:18;1.50;;;1.07;;
13185;SDS011;6658;53.080;7.428;2023-04-03T16:52:47;2.77;;;1.40;;
13185;SDS011;6658;53.080;7.428;2023-04-03T16:55:13;2.07;;;1.40;;
13185;SDS011;6658;53.080;7.428;2023-04-03T16:57:38;2.33;;;1.20;;
13185;SDS011;6658;53.080;7.428;2023-04-03T17:00:04;1.40;;;1.20;;
13185;SDS011;6658;53.080;7.428;2023-04-03T17:02:31;3.20;;;1.60;;
13185;SDS011;6658;53.080;7.428;2023-04-03T17:04:56;2.60;;;1.40;;